Time;durP1;ratioP1;P1;durP2;ratioP2;P2;SDS_P1;SDS_P2;PMS_P1;PMS_P2;Temp;Humidity;BMP_temperature;BMP_pressure;BME280_temperature;BME280_humidity;BME280_pressure;Samples;Min_cycle;Max_cycle;Signal;HPM_P1;HPM_P2
2023/07/31 00:00:32;;;;;;;1.55;0.93;;;15.50;99.90;;;;;;5068253;28;20521;-88
2023/07/31 00:02:58;;;;;;;0.75;0.50;;;15.50;99.90;;;;;;5073021;28;20056;-87
2023/07/31 00:05:23;;;;;;;2.20;0.65;;;15.50;99.90;;;;;;5072045;28;20545;-87
2023/07/31 00:07:49;;;;;;;0.50;0.40;;;15.50;99.90;;;;;;5055131;28;20388;-88
2023/07/31 00:10:15;;;;;;;1.30;0.82;;;15.40;99.90;;;;;;5072429;28;20094;-89
2023/07/31 00:12:43;;;;;;;3.45;0.98;;;15.40;99.90;;;;;;5072507;28;20048;-90
2023/07/31 00:15:09;;;;;;;2.03;0.73;;;15.40;99.90;;;;;;5073284;28;20052;-89
2023/07/31 00:17:36;;;;;;;0.55;0.43;;;15.40;99.90;;;;;;5055841;28;20040;-89
2023/07/31 00:20:02;;;;;;;1.73;0.80;;;15.40;99.90;;;;;;5055038;28;20443;-89
2023/07/31 00:22:27;;;;;;;1.08;0.32;;;15.40;99.90;;;;;;5056297;28;20041;-91
2023/07/31 00:24:53;;;;;;;0.70;0.50;;;15.30;99.90;;;;;;5054860;28;20495;-89
2023/07/31 00:27:19;;;;;;;0.80;0.32;;;15.30;99.90;;;;;;5053855;28;20052;-88
2023/07/31 00:29:45;;;;;;;0.70;0.40;;;15.30;99.90;;;;;;5072872;28;20114;-87
2023/07/31 00:32:10;;;;;;;1.30;0.30;;;15.30;99.90;;;;;;5054456;28;20044;-89
2023/07/31 00:34:36;;;;;;;0.65;0.20;;;15.30;99.90;;;;;;5053750;28;20049;-89
2023/07/31 00:37:02;;;;;;;0.85;0.40;;;15.30;99.90;;;;;;5054633;28;20048;-89
2023/07/31 00:39:30;;;;;;;0.90;0.35;;;15.30;99.90;;;;;;5037645;28;20097;-88
2023/07/31 00:41:55;;;;;;;0.57;0.22;;;15.30;99.90;;;;;;5053703;28;20107;-88
2023/07/31 00:44:21;;;;;;;0.20;0.20;;;15.30;99.90;;;;;;5037905;28;20128;-89
2023/07/31 00:46:47;;;;;;;0.75;0.30;;;15.30;99.90;;;;;;5053627;28;20123;-89
2023/07/31 00:49:13;;;;;;;0.20;0.20;;;15.30;99.90;;;;;;5054641;28;20090;-89
2023/07/31 00:51:39;;;;;;;0.43;0.20;;;15.30;99.90;;;;;;5072446;28;20048;-90
2023/07/31 00:54:06;;;;;;;0.22;0.20;;;15.30;99.90;;;;;;5071715;28;20055;-90
2023/07/31 00:56:32;;;;;;;0.52;0.20;;;15.30;99.90;;;;;;5054543;28;20037;-89
2023/07/31 00:58:58;;;;;;;0.93;0.43;;;15.30;99.90;;;;;;5033958;28;20090;-90
2023/07/31 01:01:24;;;;;;;0.30;0.22;;;15.30;99.90;;;;;;5052628;28;20397;-89
2023/07/31 01:03:53;;;;;;;0.30;0.20;;;15.30;99.90;;;;;;5052129;28;20118;-89
2023/07/31 01:06:45;;;;;;;0.30;0.28;;;15.30;99.90;;;;;;5034265;28;20438;-89
2023/07/31 01:09:35;;;;;;;0.80;0.20;;;15.30;99.90;;;;;;5054114;28;20052;-88
2023/07/31 01:12:02;;;;;;;0.75;0.22;;;15.30;99.90;;;;;;5054117;28;20052;-89
2023/07/31 01:14:28;;;;;;;0.43;0.20;;;15.30;99.90;;;;;;5037378;28;20052;-89
2023/07/31 01:16:54;;;;;;;0.10;0.10;;;15.30;99.90;;;;;;5053129;28;20037;-89
2023/07/31 01:19:29;;;;;;;0.50;0.20;;;15.30;99.90;;;;;;5053974;28;20064;-89
2023/07/31 01:22:03;;;;;;;0.35;0.15;;;15.30;99.90;;;;;;5053420;28;20048;-89
2023/07/31 01:24:48;;;;;;;1.40;0.57;;;15.30;99.90;;;;;;5071639;28;20060;-89
2023/07/31 01:27:21;;;;;;;0.85;0.55;;;15.40;99.90;;;;;;5053308;28;20053;-90
2023/07/31 01:30:03;;;;;;;0.40;0.30;;;15.40;99.90;;;;;;5053333;28;20049;-90
2023/07/31 01:32:29;;;;;;;0.65;0.45;;;15.40;99.90;;;;;;5037645;28;20044;-89
2023/07/31 01:34:58;;;;;;;0.65;0.38;;;15.40;99.90;;;;;;5053574;28;20040;-90
2023/07/31 01:37:29;;;;;;;1.63;0.43;;;15.40;99.90;;;;;;5052857;28;20036;-89
2023/07/31 01:39:55;;;;;;;0.63;0.30;;;15.40;99.90;;;;;;5071225;28;20484;-89
2023/07/31 01:42:20;;;;;;;0.95;0.40;;;15.40;99.90;;;;;;5056948;28;20112;-89
2023/07/31 01:44:46;;;;;;;1.13;0.40;;;15.40;99.90;;;;;;5033212;28;20495;-89
2023/07/31 01:47:12;;;;;;;0.68;0.22;;;15.50;99.90;;;;;;5033499;28;20488;-89
2023/07/31 01:49:38;;;;;;;1.10;0.43;;;15.40;99.90;;;;;;5050428;28;20036;-89
2023/07/31 01:52:04;;;;;;;0.65;0.30;;;15.50;99.90;;;;;;5036581;28;20104;-89
2023/07/31 01:54:29;;;;;;;0.30;0.20;;;15.50;99.90;;;;;;5053274;28;20083;-89
2023/07/31 01:56:55;;;;;;;0.15;0.13;;;15.50;99.90;;;;;;5070052;28;20072;-88
2023/07/31 01:59:21;;;;;;;0.75;0.38;;;15.50;99.90;;;;;;5052358;28;20037;-88
2023/07/31 02:01:47;;;;;;;0.20;0.10;;;15.50;99.90;;;;;;5053202;28;20048;-89
2023/07/31 02:04:12;;;;;;;0.32;0.10;;;15.60;99.90;;;;;;5052942;28;20046;-90
2023/07/31 02:06:39;;;;;;;0.28;0.20;;;15.60;99.90;;;;;;5053151;28;20048;-89
2023/07/31 02:09:04;;;;;;;3.05;0.28;;;15.60;99.90;;;;;;5071286;28;20072;-89
2023/07/31 02:11:30;;;;;;;3.50;0.25;;;15.60;99.90;;;;;;5070263;28;20121;-89
2023/07/31 02:13:56;;;;;;;0.22;0.20;;;15.70;99.90;;;;;;5070894;28;20040;-89
2023/07/31 02:16:22;;;;;;;0.28;0.20;;;15.70;99.90;;;;;;5053202;28;20072;-89
2023/07/31 02:18:47;;;;;;;0.52;0.25;;;15.70;99.90;;;;;;5052895;28;20037;-90
2023/07/31 02:21:13;;;;;;;0.95;0.20;;;15.80;99.90;;;;;;5053237;28;20400;-89
2023/07/31 02:23:39;;;;;;;0.20;0.10;;;15.70;99.90;;;;;;5071030;28;20090;-89
2023/07/31 02:26:05;;;;;;;0.15;0.10;;;15.80;99.90;;;;;;5051842;28;20122;-89
2023/07/31 02:28:30;;;;;;;0.50;0.30;;;15.80;99.90;;;;;;5051772;28;20056;-88
2023/07/31 02:30:56;;;;;;;0.80;0.30;;;15.80;99.90;;;;;;5051452;28;20052;-89
2023/07/31 02:33:23;;;;;;;0.20;0.10;;;15.90;99.90;;;;;;5051534;28;20511;-87
2023/07/31 02:35:49;;;;;;;0.20;0.10;;;15.80;99.90;;;;;;5059040;28;20049;-87
2023/07/31 02:38:14;;;;;;;1.55;0.20;;;15.70;99.90;;;;;;5016253;28;20118;-88
2023/07/31 02:40:43;;;;;;;0.77;0.30;;;15.60;99.90;;;;;;5031882;28;20040;-88
2023/07/31 02:43:09;;;;;;;0.63;0.20;;;15.40;99.90;;;;;;5032857;28;20045;-89
2023/07/31 02:45:35;;;;;;;0.80;0.22;;;15.40;99.90;;;;;;5049151;28;20131;-89
2023/07/31 02:48:01;;;;;;;0.13;0.10;;;15.40;99.90;;;;;;5069535;28;20553;-90
2023/07/31 02:50:28;;;;;;;1.85;0.40;;;15.40;99.90;;;;;;5052998;28;20050;-89
2023/07/31 02:52:54;;;;;;;0.10;0.10;;;15.40;99.90;;;;;;5042910;28;20101;-90
2023/07/31 02:55:20;;;;;;;0.28;0.10;;;15.40;99.90;;;;;;5052151;28;20500;-88
2023/07/31 02:57:45;;;;;;;0.40;0.20;;;15.40;99.90;;;;;;5052505;28;20040;-87
2023/07/31 03:00:11;;;;;;;0.17;0.10;;;15.40;99.90;;;;;;5051497;28;20039;-87
2023/07/31 03:02:37;;;;;;;0.10;0.10;;;15.40;99.90;;;;;;5052226;28;20036;-88
2023/07/31 03:05:03;;;;;;;0.15;0.10;;;15.40;99.90;;;;;;5052660;28;20098;-89
2023/07/31 03:07:30;;;;;;;0.20;0.20;;;15.40;99.90;;;;;;5051945;28;20539;-89
2023/07/31 03:09:56;;;;;;;0.25;0.20;;;15.40;99.90;;;;;;5053198;28;20043;-90
2023/07/31 03:12:23;;;;;;;0.13;0.10;;;15.50;99.90;;;;;;5053418;28;20520;-90
2023/07/31 03:14:49;;;;;;;0.10;0.10;;;15.50;99.90;;;;;;5034502;28;20114;-90
2023/07/31 03:17:15;;;;;;;0.20;0.17;;;15.50;99.90;;;;;;5050358;28;20040;-90
2023/07/31 03:19:41;;;;;;;0.15;0.10;;;15.50;99.90;;;;;;5050396;28;20041;-89
2023/07/31 03:22:06;;;;;;;0.40;0.20;;;15.60;99.90;;;;;;5033875;28;20041;-89
2023/07/31 03:24:32;;;;;;;0.10;0.10;;;15.60;99.90;;;;;;5035970;28;20277;-90
2023/07/31 03:26:58;;;;;;;0.30;0.10;;;15.60;99.90;;;;;;5046769;28;20079;-89
2023/07/31 03:29:24;;;;;;;0.43;0.20;;;15.60;99.90;;;;;;5055112;28;20057;-88
2023/07/31 03:31:49;;;;;;;1.48;0.63;;;15.60;99.90;;;;;;5055737;28;20079;-89
2023/07/31 03:34:15;;;;;;;0.10;0.10;;;15.60;99.90;;;;;;5073688;28;20043;-89
2023/07/31 03:36:41;;;;;;;0.38;0.10;;;15.60;99.90;;;;;;5055083;28;20037;-88
2023/07/31 03:39:07;;;;;;;0.08;0.08;;;15.60;99.90;;;;;;5054224;28;20080;-89
2023/07/31 03:41:32;;;;;;;0.30;0.30;;;15.60;99.90;;;;;;5035854;28;20041;-89
2023/07/31 03:43:58;;;;;;;0.10;0.10;;;15.60;99.90;;;;;;5035136;28;20101;-89
2023/07/31 03:46:24;;;;;;;0.47;0.32;;;15.60;99.90;;;;;;5053498;28;20623;-90
2023/07/31 03:48:50;;;;;;;0.22;0.10;;;15.70;99.90;;;;;;5053082;28;20072;-87
2023/07/31 03:51:17;;;;;;;2.05;0.25;;;15.70;99.90;;;;;;5053573;28;20041;-88
2023/07/31 03:53:43;;;;;;;0.45;0.30;;;15.70;99.90;;;;;;5069760;28;20047;-88
2023/07/31 03:56:09;;;;;;;0.47;0.30;;;15.80;99.90;;;;;;5072543;28;20111;-88
2023/07/31 03:58:35;;;;;;;0.15;0.10;;;15.80;99.90;;;;;;5073247;28;20166;-89
2023/07/31 04:01:01;;;;;;;0.90;0.40;;;15.80;99.90;;;;;;5072988;28;20043;-89
2023/07/31 04:03:27;;;;;;;0.65;0.25;;;15.80;99.90;;;;;;5072106;28;20037;-88
2023/07/31 04:05:55;;;;;;;1.60;0.47;;;15.90;99.90;;;;;;5072966;28;20261;-87
2023/07/31 04:08:22;;;;;;;0.60;0.32;;;15.90;99.90;;;;;;5072835;28;20047;-88
2023/07/31 04:10:47;;;;;;;0.75;0.40;;;15.90;99.90;;;;;;5054625;28;20036;-88
2023/07/31 04:13:13;;;;;;;2.50;1.23;;;15.90;99.90;;;;;;5072822;28;20114;-88
2023/07/31 04:15:39;;;;;;;1.73;0.60;;;16.00;99.90;;;;;;5042499;28;20036;-90
2023/07/31 04:18:06;;;;;;;3.35;1.38;;;16.10;99.90;;;;;;5034775;28;20555;-88
2023/07/31 04:20:32;;;;;;;1.58;0.75;;;16.10;99.90;;;;;;5034830;28;20079;-88
2023/07/31 04:22:58;;;;;;;1.20;0.50;;;16.10;99.90;;;;;;5043701;28;20076;-88
2023/07/31 04:25:24;;;;;;;0.75;0.55;;;16.10;99.90;;;;;;5053557;28;20127;-89
2023/07/31 04:27:49;;;;;;;0.75;0.60;;;16.10;99.90;;;;;;5034883;28;20049;-88
2023/07/31 04:30:15;;;;;;;2.38;1.25;;;16.00;99.90;;;;;;5052819;28;20043;-89
2023/07/31 04:32:41;;;;;;;6.88;1.17;;;16.00;99.90;;;;;;5033183;28;20475;-90
2023/07/31 04:35:07;;;;;;;5.28;1.48;;;16.10;99.90;;;;;;5035346;28;20044;-90
2023/07/31 04:37:33;;;;;;;5.20;2.08;;;16.10;99.90;;;;;;5035310;28;20052;-90
2023/07/31 04:39:59;;;;;;;2.15;1.08;;;16.20;99.90;;;;;;5034445;28;20124;-90
2023/07/31 04:42:24;;;;;;;4.30;1.20;;;16.10;99.90;;;;;;5035769;28;20079;-90
2023/07/31 04:44:52;;;;;;;4.22;1.63;;;16.20;99.90;;;;;;5034682;28;20041;-90
2023/07/31 04:47:18;;;;;;;5.63;1.60;;;16.20;99.90;;;;;;5053230;28;20041;-89
2023/07/31 04:49:44;;;;;;;2.85;0.95;;;16.20;99.90;;;;;;5035639;28;20041;-90
2023/07/31 04:52:10;;;;;;;3.67;1.55;;;16.20;99.90;;;;;;5052407;28;20043;-90
2023/07/31 04:54:36;;;;;;;8.15;1.52;;;16.20;99.90;;;;;;5034938;28;20055;-89
2023/07/31 04:57:01;;;;;;;6.22;2.08;;;16.30;99.90;;;;;;5052556;28;20043;-88
2023/07/31 04:59:27;;;;;;;5.13;1.58;;;16.30;99.90;;;;;;5051566;28;20041;-90
2023/07/31 05:01:53;;;;;;;4.10;1.60;;;16.30;99.90;;;;;;5035109;28;20044;-89
2023/07/31 05:04:19;;;;;;;3.58;1.10;;;16.30;99.90;;;;;;5059631;28;20040;-90
2023/07/31 05:06:44;;;;;;;5.78;1.10;;;16.40;99.90;;;;;;5051526;28;20029;-88
2023/07/31 05:09:10;;;;;;;5.75;1.40;;;16.30;99.90;;;;;;5017590;28;20045;-89
2023/07/31 05:11:36;;;;;;;2.55;1.08;;;16.40;99.90;;;;;;5014657;28;20046;-90
2023/07/31 05:14:01;;;;;;;4.82;1.90;;;16.40;99.90;;;;;;5013918;28;20042;-89
2023/07/31 05:16:27;;;;;;;5.00;1.67;;;16.40;99.90;;;;;;5014411;28;20050;-89
2023/07/31 05:18:53;;;;;;;6.60;1.90;;;16.50;99.90;;;;;;5019937;28;20043;-88
2023/07/31 05:21:19;;;;;;;3.85;1.83;;;16.40;99.90;;;;;;5016929;28;20044;-89
2023/07/31 05:23:45;;;;;;;6.95;1.65;;;16.40;99.90;;;;;;5030606;28;20043;-90
2023/07/31 05:26:10;;;;;;;7.80;1.45;;;16.40;99.90;;;;;;5038923;28;20060;-90
2023/07/31 05:28:36;;;;;;;4.90;1.75;;;16.50;99.90;;;;;;5034580;28;20165;-89
2023/07/31 05:31:06;;;;;;;5.85;1.92;;;16.50;99.90;;;;;;5034439;28;20049;-90
2023/07/31 05:33:32;;;;;;;3.38;1.38;;;16.50;99.90;;;;;;5033767;28;20041;-89
2023/07/31 05:35:58;;;;;;;3.33;1.17;;;16.60;99.90;;;;;;5032587;28;20072;-88
2023/07/31 05:38:24;;;;;;;4.78;1.65;;;16.60;99.90;;;;;;5051425;28;20075;-88
2023/07/31 05:40:50;;;;;;;5.15;1.95;;;16.60;99.90;;;;;;5032625;28;20049;-87
2023/07/31 05:43:16;;;;;;;8.85;1.95;;;16.60;99.90;;;;;;5052154;28;20116;-90
2023/07/31 05:45:44;;;;;;;2.88;1.10;;;16.60;99.90;;;;;;5033272;28;20040;-86
2023/07/31 05:48:10;;;;;;;6.83;1.37;;;16.60;99.90;;;;;;5021331;28;20485;-85
2023/07/31 05:50:38;;;;;;;5.60;1.52;;;16.70;99.90;;;;;;5053240;28;20278;-88
2023/07/31 05:53:04;;;;;;;4.28;1.75;;;16.70;99.90;;;;;;5036806;28;20036;-86
2023/07/31 05:55:30;;;;;;;3.75;1.33;;;16.70;99.90;;;;;;5055943;28;20127;-86
2023/07/31 05:57:56;;;;;;;6.82;1.35;;;16.80;99.90;;;;;;5050424;28;20142;-81
2023/07/31 06:00:22;;;;;;;4.53;1.50;;;16.80;99.90;;;;;;5047393;28;20091;-85
2023/07/31 06:02:48;;;;;;;3.65;1.38;;;16.90;99.90;;;;;;5035346;28;20094;-86
2023/07/31 06:05:14;;;;;;;6.65;1.23;;;17.00;99.90;;;;;;5055168;28;20055;-85
2023/07/31 06:07:40;;;;;;;5.03;1.65;;;17.00;99.90;;;;;;5031308;28;20045;-85
2023/07/31 06:10:06;;;;;;;2.55;1.55;;;17.00;99.90;;;;;;5031971;28;20036;-85
2023/07/31 06:12:32;;;;;;;3.55;1.13;;;17.00;99.90;;;;;;5050706;28;20121;-85
2023/07/31 06:14:58;;;;;;;3.45;0.90;;;17.00;99.90;;;;;;5036878;28;20036;-85
2023/07/31 06:17:25;;;;;;;3.22;1.20;;;17.00;99.90;;;;;;5035519;28;20036;-87
2023/07/31 06:19:51;;;;;;;3.97;1.23;;;17.00;99.90;;;;;;5052269;28;20090;-86
2023/07/31 06:22:17;;;;;;;3.70;0.90;;;17.00;99.90;;;;;;5052428;28;20036;-85
2023/07/31 06:24:43;;;;;;;3.67;1.23;;;16.90;99.90;;;;;;5051670;28;20141;-86
2023/07/31 06:27:09;;;;;;;3.97;1.58;;;17.00;99.90;;;;;;5051956;28;20063;-87
2023/07/31 06:29:35;;;;;;;5.45;1.33;;;17.00;99.90;;;;;;5052267;28;20053;-87
2023/07/31 06:32:00;;;;;;;2.88;1.42;;;17.00;99.90;;;;;;5069614;28;20040;-87
2023/07/31 06:34:30;;;;;;;5.00;0.85;;;17.00;99.90;;;;;;5070249;28;20044;-86
2023/07/31 06:36:56;;;;;;;3.85;1.40;;;17.00;99.90;;;;;;5069714;28;20052;-88
2023/07/31 06:39:22;;;;;;;3.85;1.45;;;17.00;99.90;;;;;;5071875;28;20128;-87
2023/07/31 06:41:48;;;;;;;2.95;1.25;;;17.00;99.90;;;;;;5041307;28;20055;-88
2023/07/31 06:44:14;;;;;;;2.92;0.93;;;17.00;99.90;;;;;;5034345;28;20481;-87
2023/07/31 06:46:40;;;;;;;1.85;0.80;;;17.00;99.90;;;;;;5020796;28;20548;-87
2023/07/31 06:49:05;;;;;;;5.13;1.20;;;17.00;99.90;;;;;;5030211;28;20090;-87
2023/07/31 06:51:31;;;;;;;1.92;0.57;;;17.00;99.90;;;;;;5035224;28;20049;-87
2023/07/31 06:53:58;;;;;;;1.48;0.77;;;16.90;99.90;;;;;;5051987;28;20068;-88
2023/07/31 06:56:24;;;;;;;2.90;0.60;;;16.90;99.90;;;;;;5070396;28;20502;-87
2023/07/31 06:58:49;;;;;;;3.65;0.80;;;16.90;99.90;;;;;;5039783;28;20108;-85
2023/07/31 07:01:15;;;;;;;4.30;0.93;;;16.90;99.90;;;;;;5038985;28;20033;-86
2023/07/31 07:03:41;;;;;;;0.68;0.30;;;16.90;99.90;;;;;;5071836;28;20445;-87
2023/07/31 07:06:07;;;;;;;1.17;0.75;;;16.80;99.90;;;;;;5030946;28;20056;-85
2023/07/31 07:08:33;;;;;;;3.03;0.50;;;16.80;99.90;;;;;;5036143;28;20245;-86
2023/07/31 07:10:58;;;;;;;2.00;0.73;;;16.80;99.90;;;;;;5040216;28;20161;-86
2023/07/31 07:13:24;;;;;;;0.98;0.32;;;16.80;99.90;;;;;;5054882;28;20040;-86
2023/07/31 07:15:51;;;;;;;0.80;0.30;;;16.80;99.90;;;;;;5019676;28;20486;-87
2023/07/31 07:18:17;;;;;;;2.05;0.47;;;16.70;99.90;;;;;;5053852;28;20037;-87
2023/07/31 07:20:47;;;;;;;0.98;0.65;;;16.70;99.90;;;;;;5035006;28;20041;-87
2023/07/31 07:23:13;;;;;;;0.80;0.40;;;16.70;99.90;;;;;;5035907;28;20457;-86
2023/07/31 07:25:39;;;;;;;0.55;0.40;;;16.70;99.90;;;;;;5015239;28;20132;-87
2023/07/31 07:28:05;;;;;;;1.13;0.52;;;16.60;99.90;;;;;;5015474;28;20088;-87
2023/07/31 07:30:30;;;;;;;0.65;0.38;;;16.70;99.90;;;;;;5015058;28;20072;-86
2023/07/31 07:32:56;;;;;;;0.50;0.20;;;16.70;99.90;;;;;;5015489;28;20049;-88
2023/07/31 07:35:22;;;;;;;0.57;0.45;;;16.80;99.90;;;;;;5015016;28;20048;-87
2023/07/31 07:37:51;;;;;;;0.15;0.13;;;16.80;99.90;;;;;;4998033;28;20124;-87
2023/07/31 07:40:16;;;;;;;0.50;0.20;;;16.80;99.90;;;;;;5034903;28;20048;-87
2023/07/31 07:42:42;;;;;;;0.70;0.28;;;16.80;99.90;;;;;;5050101;28;20045;-87
2023/07/31 07:45:09;;;;;;;0.73;0.20;;;16.90;99.90;;;;;;5018314;28;20128;-87
2023/07/31 07:47:34;;;;;;;1.52;0.20;;;16.90;99.90;;;;;;5018288;28;20095;-87
2023/07/31 07:50:00;;;;;;;0.40;0.10;;;16.90;99.90;;;;;;5035514;28;20049;-87
2023/07/31 07:52:26;;;;;;;1.08;0.20;;;17.00;99.90;;;;;;5035049;28;20095;-88
2023/07/31 07:54:52;;;;;;;0.47;0.20;;;17.00;99.90;;;;;;5018845;28;20477;-89
2023/07/31 07:57:18;;;;;;;0.50;0.30;;;17.00;99.90;;;;;;5052064;28;20044;-90
2023/07/31 07:59:44;;;;;;;0.70;0.45;;;17.10;99.90;;;;;;5035524;28;20051;-90
2023/07/31 08:02:09;;;;;;;0.40;0.20;;;17.10;99.90;;;;;;5035335;28;20036;-88
2023/07/31 08:04:35;;;;;;;1.27;0.50;;;17.10;99.90;;;;;;5016166;28;20401;-89
2023/07/31 08:07:01;;;;;;;0.43;0.28;;;17.10;99.90;;;;;;5044309;28;20034;-91
2023/07/31 08:09:27;;;;;;;0.10;0.10;;;17.20;99.90;;;;;;5018693;28;20048;-89
2023/07/31 08:11:53;;;;;;;0.75;0.57;;;17.10;99.90;;;;;;5032285;28;20037;-88
2023/07/31 08:14:18;;;;;;;0.20;0.10;;;17.10;99.90;;;;;;5015568;28;20110;-88
2023/07/31 08:16:44;;;;;;;0.25;0.10;;;17.10;99.90;;;;;;5015303;28;20128;-90
2023/07/31 08:19:10;;;;;;;1.40;0.38;;;17.10;99.90;;;;;;4999581;28;20107;-90
2023/07/31 08:21:36;;;;;;;0.47;0.38;;;17.20;99.90;;;;;;5033473;28;20044;-89
2023/07/31 08:24:02;;;;;;;0.35;0.30;;;17.20;99.90;;;;;;4999617;28;20041;-90
2023/07/31 08:26:28;;;;;;;1.05;0.40;;;17.20;99.90;;;;;;5024648;28;20171;-89
2023/07/31 08:28:53;;;;;;;0.35;0.20;;;17.20;99.90;;;;;;5035140;28;20092;-88
2023/07/31 08:31:19;;;;;;;1.45;0.20;;;17.20;99.90;;;;;;5053667;28;20036;-90
2023/07/31 08:33:45;;;;;;;0.65;0.30;;;17.20;99.90;;;;;;5019162;28;20565;-90
2023/07/31 08:36:11;;;;;;;0.38;0.20;;;17.20;99.90;;;;;;5018510;28;20044;-90
2023/07/31 08:38:37;;;;;;;0.30;0.17;;;17.30;99.90;;;;;;5019569;28;20048;-92
2023/07/31 08:41:05;;;;;;;0.20;0.10;;;17.40;99.90;;;;;;5018956;28;20043;-91
2023/07/31 08:43:32;;;;;;;0.20;0.20;;;17.40;99.90;;;;;;5052132;28;20045;-90
2023/07/31 08:45:58;;;;;;;0.08;0.08;;;17.50;99.90;;;;;;5055172;28;20041;-90
2023/07/31 08:48:25;;;;;;;0.38;0.20;;;17.50;99.90;;;;;;5038918;28;20037;-91
2023/07/31 08:50:54;;;;;;;0.73;0.20;;;17.60;99.90;;;;;;5054668;28;20037;-90
2023/07/31 08:53:20;;;;;;;0.57;0.20;;;17.60;99.90;;;;;;5055487;28;20102;-89
2023/07/31 08:55:47;;;;;;;0.43;0.22;;;17.60;99.90;;;;;;5054677;28;20079;-89
2023/07/31 08:58:14;;;;;;;0.13;0.10;;;17.60;99.90;;;;;;5037476;28;20173;-89
2023/07/31 09:00:41;;;;;;;0.10;0.00;;;17.60;99.90;;;;;;5072087;28;20044;-88
2023/07/31 09:03:14;;;;;;;0.10;0.10;;;17.50;99.90;;;;;;5037712;28;20094;-89
2023/07/31 09:05:44;;;;;;;0.17;0.10;;;17.50;99.90;;;;;;5037209;28;20040;-88
2023/07/31 09:08:11;;;;;;;0.00;0.00;;;17.40;99.90;;;;;;5033903;28;20040;-88
2023/07/31 09:10:46;;;;;;;0.20;0.10;;;17.50;99.90;;;;;;5017032;28;20087;-87
2023/07/31 09:13:12;;;;;;;0.20;0.03;;;17.40;99.90;;;;;;5017442;28;20135;-89
2023/07/31 09:15:39;;;;;;;0.00;0.00;;;17.50;99.90;;;;;;5017351;28;20087;-89
2023/07/31 09:18:06;;;;;;;0.00;0.00;;;17.50;99.90;;;;;;5017436;28;20439;-89
2023/07/31 09:20:33;;;;;;;0.17;0.08;;;17.60;99.90;;;;;;5034799;28;20052;-89
2023/07/31 09:23:10;;;;;;;0.40;0.17;;;17.70;99.90;;;;;;5026163;28;20043;-88
2023/07/31 09:25:37;;;;;;;0.43;0.20;;;17.80;99.90;;;;;;5018408;28;20514;-89
2023/07/31 09:28:06;;;;;;;0.10;0.10;;;18.00;99.90;;;;;;5053488;28;20049;-87
2023/07/31 09:30:45;;;;;;;0.00;0.00;;;18.20;99.90;;;;;;5053407;28;20136;-87
2023/07/31 09:33:11;;;;;;;0.00;0.00;;;18.40;99.90;;;;;;5035742;28;20155;-89
2023/07/31 09:35:43;;;;;;;0.08;0.00;;;18.60;99.90;;;;;;5036570;28;20127;-87
2023/07/31 09:38:13;;;;;;;0.22;0.05;;;18.80;99.90;;;;;;5053570;28;20075;-87
2023/07/31 09:40:44;;;;;;;0.10;0.10;;;19.00;99.90;;;;;;5035760;28;20032;-87
2023/07/31 09:43:12;;;;;;;0.10;0.00;;;19.00;99.90;;;;;;5053067;28;20730;-86
2023/07/31 09:45:42;;;;;;;0.10;0.10;;;19.10;99.90;;;;;;5070043;28;20079;-87
2023/07/31 09:48:10;;;;;;;0.00;0.00;;;19.20;99.90;;;;;;5036657;28;20114;-86
2023/07/31 09:50:41;;;;;;;0.10;0.10;;;19.40;99.90;;;;;;5060577;28;20033;-86
2023/07/31 09:53:08;;;;;;;0.05;0.00;;;19.50;99.90;;;;;;5049087;28;20044;-86
2023/07/31 09:55:35;;;;;;;0.20;0.10;;;19.50;99.90;;;;;;5025824;28;20531;-86
2023/07/31 09:58:06;;;;;;;0.17;0.00;;;19.50;99.90;;;;;;5052928;28;20052;-86
2023/07/31 10:00:32;;;;;;;0.00;0.00;;;19.40;99.90;;;;;;5048984;28;20037;-89
2023/07/31 10:03:04;;;;;;;1.15;0.20;;;19.40;99.90;;;;;;5016330;28;20485;-86
2023/07/31 10:05:42;;;;;;;0.35;0.20;;;19.40;99.90;;;;;;5065393;28;20033;-87
2023/07/31 10:08:11;;;;;;;0.22;0.10;;;19.40;99.90;;;;;;5070103;28;20118;-87
2023/07/31 10:10:40;;;;;;;0.17;0.10;;;19.40;99.90;;;;;;5036059;28;20052;-87
2023/07/31 10:13:07;;;;;;;0.45;0.20;;;19.30;99.90;;;;;;5052859;28;20109;-87
2023/07/31 10:15:34;;;;;;;0.60;0.38;;;19.30;99.90;;;;;;5034245;28;20041;-87
2023/07/31 10:18:00;;;;;;;0.43;0.15;;;19.20;99.90;;;;;;5052827;28;20048;-86
2023/07/31 10:20:28;;;;;;;0.98;0.25;;;19.30;99.90;;;;;;5070395;28;20051;-86
2023/07/31 10:22:55;;;;;;;0.25;0.20;;;19.30;99.90;;;;;;5051926;28;20391;-86
2023/07/31 10:25:22;;;;;;;0.25;0.10;;;19.30;99.90;;;;;;5052234;28;20032;-87
2023/07/31 10:27:50;;;;;;;0.65;0.43;;;19.40;99.90;;;;;;5052071;28;20036;-88
2023/07/31 10:30:19;;;;;;;0.70;0.20;;;19.50;99.90;;;;;;5032930;28;20044;-87
2023/07/31 10:32:46;;;;;;;0.17;0.10;;;19.60;99.90;;;;;;5035750;28;20039;-87
2023/07/31 10:35:12;;;;;;;0.15;0.08;;;19.90;99.90;;;;;;5041168;28;20114;-87
2023/07/31 10:37:42;;;;;;;0.52;0.30;;;20.10;99.90;;;;;;5047926;28;20048;-88
2023/07/31 10:40:25;;;;;;;0.57;0.20;;;20.20;99.90;;;;;;5069148;28;20045;-86
2023/07/31 10:42:53;;;;;;;2.38;0.20;;;20.20;99.90;;;;;;5039922;28;20049;-87
2023/07/31 10:45:30;;;;;;;0.20;0.20;;;20.10;99.90;;;;;;5053666;28;20037;-86
2023/07/31 10:48:01;;;;;;;0.63;0.38;;;20.00;99.90;;;;;;5035681;28;20695;-84
2023/07/31 10:50:29;;;;;;;0.08;0.00;;;19.90;99.90;;;;;;5069409;28;20037;-87
2023/07/31 10:52:57;;;;;;;1.70;0.40;;;19.70;99.90;;;;;;5051922;28;20129;-87
2023/07/31 10:55:38;;;;;;;0.32;0.10;;;19.60;99.90;;;;;;5052032;28;20054;-87
2023/07/31 10:58:10;;;;;;;0.00;0.00;;;19.50;99.90;;;;;;5032914;28;20159;-91
2023/07/31 11:00:44;;;;;;;0.32;0.32;;;19.50;99.90;;;;;;5066117;28;20090;-85
2023/07/31 11:03:15;;;;;;;0.57;0.22;;;19.50;99.90;;;;;;5069625;28;20032;-86
2023/07/31 11:05:59;;;;;;;0.25;0.10;;;19.30;99.90;;;;;;5052208;28;20047;-86
2023/07/31 11:08:30;;;;;;;0.43;0.10;;;19.20;99.90;;;;;;5052292;28;20072;-88
2023/07/31 11:11:02;;;;;;;0.57;0.47;;;19.10;99.90;;;;;;5051827;28;20121;-88
2023/07/31 11:13:33;;;;;;;0.40;0.20;;;19.10;99.90;;;;;;5036154;28;20059;-88
2023/07/31 11:15:59;;;;;;;0.22;0.10;;;19.00;99.90;;;;;;5035703;28;20491;-87
2023/07/31 11:18:27;;;;;;;0.28;0.10;;;19.00;99.90;;;;;;5043947;28;20064;-87
2023/07/31 11:20:53;;;;;;;0.10;0.03;;;19.10;99.90;;;;;;5032036;28;20041;-87
2023/07/31 11:23:20;;;;;;;0.10;0.10;;;19.20;99.90;;;;;;5032355;28;20048;-87
2023/07/31 11:25:46;;;;;;;0.93;0.20;;;19.20;99.90;;;;;;5034582;28;20053;-86
2023/07/31 11:28:17;;;;;;;0.05;0.05;;;19.20;99.90;;;;;;5052380;28;20052;-88
2023/07/31 11:30:44;;;;;;;0.10;0.10;;;19.30;99.90;;;;;;5067959;28;20040;-88
2023/07/31 11:33:12;;;;;;;0.25;0.15;;;19.20;99.90;;;;;;5051785;28;20488;-87
2023/07/31 11:35:47;;;;;;;0.03;0.03;;;19.20;99.90;;;;;;5035269;28;20040;-88
2023/07/31 11:38:27;;;;;;;0.28;0.10;;;19.10;99.90;;;;;;5051517;28;20200;-88
2023/07/31 11:40:56;;;;;;;3.13;0.20;;;19.00;99.90;;;;;;5035599;28;20040;-87
2023/07/31 11:43:22;;;;;;;0.93;0.40;;;19.00;99.90;;;;;;5049787;28;20043;-86
2023/07/31 11:45:53;;;;;;;0.38;0.20;;;19.00;99.90;;;;;;5052820;28;20127;-86
2023/07/31 11:48:29;;;;;;;0.95;0.40;;;19.00;99.90;;;;;;5055305;28;20044;-86
2023/07/31 11:50:58;;;;;;;0.22;0.22;;;19.00;99.90;;;;;;5071815;28;20072;-86
2023/07/31 11:53:30;;;;;;;2.63;0.55;;;19.00;99.90;;;;;;5027038;28;20080;-86
2023/07/31 11:55:58;;;;;;;1.42;0.68;;;19.00;99.90;;;;;;5053123;28;20044;-86
2023/07/31 11:58:24;;;;;;;1.30;0.40;;;19.10;99.90;;;;;;5054312;28;20044;-86
2023/07/31 12:00:51;;;;;;;0.63;0.30;;;19.10;99.90;;;;;;5035343;28;20041;-86
2023/07/31 12:03:18;;;;;;;0.88;0.30;;;19.20;99.90;;;;;;5035141;28;20058;-86
2023/07/31 12:05:44;;;;;;;0.68;0.30;;;19.30;99.90;;;;;;5053537;28;20113;-86
2023/07/31 12:08:11;;;;;;;0.63;0.15;;;19.30;99.90;;;;;;5055215;28;20446;-85
2023/07/31 12:10:38;;;;;;;0.55;0.30;;;19.20;99.90;;;;;;5054895;28;20131;-86
2023/07/31 12:13:10;;;;;;;0.63;0.30;;;19.10;99.90;;;;;;5072304;28;20040;-86
2023/07/31 12:15:41;;;;;;;2.75;0.38;;;19.10;99.90;;;;;;5054758;28;20522;-86
2023/07/31 12:18:15;;;;;;;0.40;0.30;;;19.00;99.90;;;;;;5038101;28;20040;-86
2023/07/31 12:20:48;;;;;;;1.52;0.40;;;19.00;99.90;;;;;;5071937;28;20040;-87
2023/07/31 12:23:28;;;;;;;1.40;0.70;;;18.90;99.90;;;;;;5072410;28;20480;-86
2023/07/31 12:26:04;;;;;;;;;;;18.80;99.90;;;;;;5033732;28;20057;-86
2023/07/31 12:28:29;;;;;;;2.53;0.57;;;18.70;99.90;;;;;;5034042;28;19940;-90
2023/07/31 12:31:00;;;;;;;1.55;0.28;;;18.70;99.90;;;;;;5034809;28;20040;-86
2023/07/31 12:33:32;;;;;;;0.88;0.60;;;18.80;99.90;;;;;;5034562;28;20037;-86
2023/07/31 12:36:00;;;;;;;2.75;0.30;;;19.00;99.90;;;;;;5033774;28;20128;-86
2023/07/31 12:38:25;;;;;;;2.42;0.28;;;19.10;99.90;;;;;;5034510;28;20072;-86
2023/07/31 12:40:51;;;;;;;2.58;0.45;;;19.30;99.90;;;;;;5033883;28;20080;-86
2023/07/31 12:43:17;;;;;;;1.65;0.45;;;19.40;99.90;;;;;;5032810;28;20041;-86
2023/07/31 12:45:43;;;;;;;3.13;0.43;;;19.50;99.90;;;;;;5034360;28;20041;-86
2023/07/31 12:48:09;;;;;;;3.08;0.73;;;19.50;99.90;;;;;;5033577;28;20048;-85